createdAt,value
2022-08-28T00:01:21.811Z,96665.03
2022-08-28T00:03:48.340Z,96667.56
2022-08-28T00:06:14.885Z,96660.47
2022-08-28T00:08:41.692Z,96666.28
2022-08-28T00:11:08.221Z,96656.72
2022-08-28T00:13:34.761Z,96664.78
2022-08-28T00:16:02.241Z,96663.13
2022-08-28T00:18:31.219Z,96666.66
2022-08-28T00:20:58.949Z,96670.81
2022-08-28T00:23:25.962Z,96658.16
2022-08-28T00:26:06.889Z,96669.97
2022-08-28T00:28:33.334Z,96665.38
2022-08-28T00:31:00.125Z,96662.91
2022-08-28T00:33:30.243Z,96658.38
2022-08-28T00:35:58.007Z,96665.91
2022-08-28T00:38:27.187Z,96663.34
2022-08-28T00:40:58.256Z,96657.94
2022-08-28T00:43:33.985Z,96663.88
2022-08-28T00:46:03.650Z,96654.81
2022-08-28T00:48:30.801Z,96658.84
2022-08-28T00:51:17.035Z,96662.88
2022-08-28T00:53:44.276Z,96661.09
2022-08-28T00:56:14.015Z,96661.72
2022-08-28T00:58:44.732Z,96660.69
2022-08-28T01:01:12.259Z,96654.66
2022-08-28T01:03:38.872Z,96652.81
2022-08-28T01:06:05.614Z,96664.78
2022-08-28T01:08:33.303Z,96667.97
2022-08-28T01:11:04.342Z,96659.63
2022-08-28T01:13:31.651Z,96659.91
2022-08-28T01:15:59.871Z,96666.78
2022-08-28T01:18:27.910Z,96658.47
2022-08-28T01:21:01.943Z,96661.94
2022-08-28T01:23:48.691Z,96658.47
2022-08-28T01:26:15.296Z,96665.22
2022-08-28T01:28:41.750Z,96663.28
2022-08-28T01:31:13.545Z,96659.75
2022-08-28T01:33:42.596Z,96650.84
2022-08-28T01:36:12.033Z,96656.19
2022-08-28T01:38:39.922Z,96647.22
2022-08-28T01:41:06.621Z,96646.38
2022-08-28T01:43:33.213Z,96653.06
2022-08-28T01:46:02.201Z,96655.50
2022-08-28T01:48:30.715Z,96659.69
2022-08-28T01:50:57.280Z,96654.72
2022-08-28T01:53:25.807Z,96653.59
2022-08-28T01:56:00.996Z,96662.28
2022-08-28T01:58:28.385Z,96649.16
2022-08-28T02:00:57.477Z,96652.88
2022-08-28T02:03:24.286Z,96654.00
2022-08-28T02:05:51.283Z,96655.97
2022-08-28T02:08:18.261Z,96660.88
2022-08-28T02:10:45.336Z,96664.38
2022-08-28T02:13:12.770Z,96666.84
2022-08-28T02:15:41.885Z,96668.69
2022-08-28T02:18:09.326Z,96667.88
2022-08-28T02:20:36.434Z,96664.16
2022-08-28T02:23:03.799Z,96667.97
2022-08-28T02:25:30.551Z,96665.38
2022-08-28T02:27:57.187Z,96668.63
2022-08-28T02:30:23.768Z,96666.19
2022-08-28T02:32:51.343Z,96676.81
2022-08-28T02:35:19.516Z,96663.44
2022-08-28T02:37:47.588Z,96667.38
2022-08-28T02:40:15.983Z,96670.63
2022-08-28T02:42:43.040Z,96668.53
2022-08-28T02:45:11.699Z,96660.66
2022-08-28T02:47:43.966Z,96666.69
2022-08-28T02:50:14.222Z,96669.06
2022-08-28T02:52:41.378Z,96668.19
2022-08-28T02:55:10.307Z,96660.22
2022-08-28T02:57:37.125Z,96660.16
2022-08-28T03:00:14.178Z,96664.88
2022-08-28T03:02:42.339Z,96665.44
2022-08-28T03:05:10.310Z,96669.66
2022-08-28T03:07:36.830Z,96662.78
2022-08-28T03:10:05.152Z,96664.50
2022-08-28T03:12:32.056Z,96665.66
2022-08-28T03:14:58.745Z,96663.97
2022-08-28T03:17:25.723Z,96665.94
2022-08-28T03:19:52.615Z,96664.25
2022-08-28T03:22:39.957Z,96664.25
2022-08-28T03:25:07.233Z,96659.13
2022-08-28T03:27:33.811Z,96668.03
2022-08-28T03:30:00.252Z,96672.13
2022-08-28T03:32:26.870Z,96669.78
2022-08-28T03:34:55.863Z,96673.59
2022-08-28T03:37:22.494Z,96678.47
2022-08-28T03:39:49.276Z,96677.53
2022-08-28T03:42:15.989Z,96676.66
2022-08-28T03:44:42.471Z,96680.66
2022-08-28T03:47:09.119Z,96677.44
2022-08-28T03:49:36.828Z,96678.66
2022-08-28T03:52:03.418Z,96686.25
2022-08-28T03:54:31.718Z,96679.91
2022-08-28T03:56:58.555Z,96678.31
2022-08-28T03:59:26.123Z,96686.56
2022-08-28T04:01:58.196Z,96687.44
2022-08-28T04:04:24.761Z,96693.50
2022-08-28T04:06:51.183Z,96699.88
2022-08-28T04:09:17.711Z,96694.94
2022-08-28T04:11:44.261Z,96698.94
2022-08-28T04:14:11.810Z,96697.06
2022-08-28T04:16:38.581Z,96692.31
2022-08-28T04:19:05.205Z,96695.56
2022-08-28T04:21:31.658Z,96697.06
2022-08-28T04:23:58.299Z,96696.28
2022-08-28T04:26:25.987Z,96702.25
2022-08-28T04:28:53.617Z,96705.47
2022-08-28T04:31:31.603Z,96694.19
2022-08-28T04:34:05.406Z,96709.28
2022-08-28T04:36:33.767Z,96703.91
2022-08-28T04:39:01.373Z,96702.72
2022-08-28T04:41:29.891Z,96701.66
2022-08-28T04:43:57.433Z,96702.88
2022-08-28T04:46:24.408Z,96699.88
2022-08-28T04:48:51.022Z,96702.31
2022-08-28T04:51:17.472Z,96710.78
2022-08-28T04:53:44.262Z,96702.53
2022-08-28T04:56:13.635Z,96711.31
2022-08-28T04:58:41.907Z,96710.28
2022-08-28T05:01:20.537Z,96715.75
2022-08-28T05:03:51.839Z,96726.47
2022-08-28T05:06:18.355Z,96720.13
2022-08-28T05:08:44.873Z,96724.88
2022-08-28T05:11:13.743Z,96723.59
2022-08-28T05:13:54.524Z,96729.91
2022-08-28T05:16:21.965Z,96730.34
2022-08-28T05:18:49.731Z,96723.97
2022-08-28T05:21:22.285Z,96730.00
2022-08-28T05:23:51.332Z,96734.00
2022-08-28T05:26:19.845Z,96724.38
2022-08-28T05:28:49.785Z,96735.88
2022-08-28T05:31:19.228Z,96733.28
2022-08-28T05:33:47.422Z,96739.56
2022-08-28T05:36:15.389Z,96738.47
2022-08-28T05:38:42.356Z,96742.72
2022-08-28T05:41:08.872Z,96738.78
2022-08-28T05:43:36.118Z,96737.91
2022-08-28T05:46:07.487Z,96744.44
2022-08-28T05:48:37.192Z,96740.06
2022-08-28T05:51:08.070Z,96730.94
2022-08-28T05:53:35.967Z,96751.50
2022-08-28T05:56:05.732Z,96743.72
2022-08-28T05:58:33.514Z,96746.28
2022-08-28T06:01:21.498Z,96749.25
2022-08-28T06:03:54.979Z,96753.78
2022-08-28T06:06:24.466Z,96744.81
2022-08-28T06:08:59.971Z,96755.84
2022-08-28T06:11:30.971Z,96751.34
2022-08-28T06:14:02.741Z,96751.72
2022-08-28T06:16:31.640Z,96748.47
2022-08-28T06:18:58.680Z,96753.31
2022-08-28T06:21:25.198Z,96752.34
2022-08-28T06:23:51.897Z,96751.63
2022-08-28T06:26:18.853Z,96756.94
2022-08-28T06:28:45.418Z,96765.47
2022-08-28T06:31:24.578Z,96764.41
2022-08-28T06:33:58.321Z,96764.69
2022-08-28T06:36:27.586Z,96767.47
2022-08-28T06:38:55.312Z,96768.50
2022-08-28T06:41:21.973Z,96765.13
2022-08-28T06:43:48.500Z,96763.03
2022-08-28T06:46:15.278Z,96768.66
2022-08-28T06:48:41.979Z,96763.59
2022-08-28T06:51:09.562Z,96771.41
2022-08-28T06:53:37.648Z,96774.00
2022-08-28T06:56:08.438Z,96771.50
2022-08-28T06:58:37.603Z,96776.97
2022-08-28T07:01:22.882Z,96775.75
2022-08-28T07:03:52.146Z,96780.84
2022-08-28T07:06:19.741Z,96784.25
2022-08-28T07:08:46.383Z,96783.28
2022-08-28T07:11:22.154Z,96800.16
2022-08-28T07:13:53.565Z,96789.50
2022-08-28T07:16:22.114Z,96794.13
2022-08-28T07:18:48.705Z,96795.47
2022-08-28T07:21:15.214Z,96799.66
2022-08-28T07:23:42.986Z,96798.94
2022-08-28T07:26:12.957Z,96795.84
2022-08-28T07:28:39.663Z,96796.31
2022-08-28T07:31:13.306Z,96798.06
2022-08-28T07:33:41.132Z,96802.38
2022-08-28T07:36:29.168Z,96798.75
2022-08-28T07:38:59.255Z,96797.75
2022-08-28T07:41:30.903Z,96799.22
2022-08-28T07:44:16.219Z,96803.97
2022-08-28T07:46:43.417Z,96807.06
2022-08-28T07:49:10.971Z,96813.16
2022-08-28T07:51:37.791Z,96806.72
2022-08-28T07:54:04.882Z,96802.00
2022-08-28T07:56:32.424Z,96806.81
2022-08-28T07:59:00.552Z,96806.34
2022-08-28T08:01:28.903Z,96821.00
2022-08-28T08:04:01.800Z,96818.56
2022-08-28T08:06:33.804Z,96814.81
2022-08-28T08:09:02.134Z,96814.59
2022-08-28T08:11:32.455Z,96828.50
2022-08-28T08:14:05.522Z,96821.34
2022-08-28T08:16:39.239Z,96824.16
2022-08-28T08:19:06.353Z,96828.63
2022-08-28T08:21:33.028Z,96836.84
2022-08-28T08:23:59.599Z,96840.41
2022-08-28T08:26:28.247Z,96837.09
2022-08-28T08:28:56.191Z,96825.38
2022-08-28T08:31:28.459Z,96839.06
2022-08-28T08:33:58.603Z,96831.78
2022-08-28T08:36:26.576Z,96833.34
2022-08-28T08:38:59.307Z,96831.44
2022-08-28T08:41:31.853Z,96835.50
2022-08-28T08:44:15.570Z,96826.84
2022-08-28T08:47:13.807Z,96843.47
2022-08-28T08:49:49.329Z,96842.91
2022-08-28T08:52:29.040Z,96844.41
2022-08-28T08:55:14.968Z,96850.72
2022-08-28T08:57:44.446Z,96846.13
2022-08-28T09:00:17.274Z,96855.47
2022-08-28T09:02:52.997Z,96847.56
2022-08-28T09:05:24.745Z,96843.47
2022-08-28T09:07:58.944Z,96849.47
2022-08-28T09:10:41.212Z,96847.25
2022-08-28T09:13:43.352Z,96849.28
2022-08-28T09:16:24.032Z,96842.38
2022-08-28T09:18:51.033Z,96848.50
2022-08-28T09:21:29.547Z,96852.16
2022-08-28T09:24:00.418Z,96857.66
2022-08-28T09:26:27.763Z,96853.25
2022-08-28T09:29:06.231Z,96856.56
2022-08-28T09:31:39.379Z,96852.25
2022-08-28T09:34:24.715Z,96857.53
2022-08-28T09:36:53.004Z,96853.53
2022-08-28T09:39:23.790Z,96851.81
2022-08-28T09:42:32.941Z,96862.22
2022-08-28T09:45:09.107Z,96855.44
2022-08-28T09:47:46.517Z,96855.59
2022-08-28T09:50:21.551Z,96866.94
2022-08-28T09:52:48.532Z,96857.47
2022-08-28T09:55:33.396Z,96864.41
2022-08-28T09:58:00.880Z,96864.34
2022-08-28T10:00:33.827Z,96868.69
2022-08-28T10:03:26.068Z,96856.50
2022-08-28T10:06:02.800Z,96864.38
2022-08-28T10:09:10.923Z,96869.94
2022-08-28T10:11:49.399Z,96866.19
2022-08-28T10:14:38.260Z,96864.03
2022-08-28T10:17:21.563Z,96873.06
2022-08-28T10:20:03.738Z,96871.34
2022-08-28T10:22:44.630Z,96860.84
2022-08-28T10:25:17.203Z,96870.88
2022-08-28T10:28:24.743Z,96866.44
2022-08-28T10:31:20.248Z,96863.75
2022-08-28T10:33:55.694Z,96865.38
2022-08-28T10:36:34.787Z,96860.97
2022-08-28T10:39:32.731Z,96866.81
2022-08-28T10:42:03.374Z,96868.25
2022-08-28T10:44:40.572Z,96856.09
2022-08-28T10:47:08.625Z,96860.59
2022-08-28T10:49:39.717Z,96872.41
2022-08-28T10:52:27.565Z,96872.59
2022-08-28T10:55:02.497Z,96867.56
2022-08-28T10:57:39.689Z,96856.78
2022-08-28T11:00:14.661Z,96851.16
2022-08-28T11:02:47.118Z,96862.75
2022-08-28T11:05:14.759Z,96864.56
2022-08-28T11:07:47.399Z,96867.84
2022-08-28T11:10:38.694Z,96860.97
2022-08-28T11:13:07.390Z,96867.84
2022-08-28T11:15:37.003Z,96868.00
2022-08-28T11:18:38.189Z,96859.31
2022-08-28T11:21:25.238Z,96867.66
2022-08-28T11:24:17.858Z,96862.31
2022-08-28T11:27:19.385Z,96858.16
2022-08-28T11:30:16.740Z,96871.59
2022-08-28T11:33:06.719Z,96865.72
2022-08-28T11:35:48.363Z,96867.38
2022-08-28T11:38:42.665Z,96868.06
2022-08-28T11:41:32.100Z,96860.06
2022-08-28T11:44:13.630Z,96864.13
2022-08-28T11:46:42.850Z,96867.94
2022-08-28T11:49:32.787Z,96860.03
2022-08-28T11:52:20.834Z,96868.59
2022-08-28T11:54:54.265Z,96864.81
2022-08-28T11:57:52.919Z,96864.97
2022-08-28T12:00:28.864Z,96872.28
2022-08-28T12:03:15.472Z,96865.31
2022-08-28T12:05:45.587Z,96861.81
2022-08-28T12:08:13.568Z,96864.44
2022-08-28T12:10:52.767Z,96856.97
2022-08-28T12:13:56.369Z,96862.50
2022-08-28T12:16:22.885Z,96851.38
2022-08-28T12:18:49.389Z,96859.44
2022-08-28T12:21:25.444Z,96862.84
2022-08-28T12:23:58.101Z,96857.31
2022-08-28T12:26:30.065Z,96859.19
2022-08-28T12:29:04.403Z,96856.16
2022-08-28T12:32:11.290Z,96855.66
2022-08-28T12:34:59.423Z,96850.38
2022-08-28T12:37:52.436Z,96860.63
2022-08-28T12:40:41.755Z,96863.50
2022-08-28T12:43:11.219Z,96857.53
2022-08-28T12:45:59.238Z,96859.88
2022-08-28T12:48:33.481Z,96871.09
2022-08-28T12:51:14.847Z,96859.81
2022-08-28T12:53:51.364Z,96855.63
2022-08-28T12:56:20.677Z,96851.84
2022-08-28T12:58:48.359Z,96856.00
2022-08-28T13:01:17.029Z,96849.59
2022-08-28T13:03:50.738Z,96857.59
2022-08-28T13:06:32.757Z,96853.31
2022-08-28T13:09:14.014Z,96858.06
2022-08-28T13:11:46.642Z,96858.50
2022-08-28T13:14:13.400Z,96848.94
2022-08-28T13:16:47.467Z,96865.53
2022-08-28T13:19:33.587Z,96856.53
2022-08-28T13:22:03.818Z,96859.34
2022-08-28T13:24:46.194Z,96859.75
2022-08-28T13:27:12.945Z,96862.44
2022-08-28T13:30:20.834Z,96855.69
2022-08-28T13:33:02.797Z,96853.28
2022-08-28T13:35:39.069Z,96856.28
2022-08-28T13:38:08.788Z,96853.63
2022-08-28T13:41:00.636Z,96850.66
2022-08-28T13:43:42.612Z,96846.63
2022-08-28T13:46:09.109Z,96852.59
2022-08-28T13:48:35.672Z,96840.66
2022-08-28T13:51:07.637Z,96850.50
2022-08-28T13:53:37.704Z,96845.44
2022-08-28T13:56:05.015Z,96842.78
2022-08-28T13:58:31.526Z,96846.34
2022-08-28T14:00:58.711Z,96838.13
2022-08-28T14:03:38.030Z,96850.84
2022-08-28T14:06:14.099Z,96848.72
2022-08-28T14:08:42.046Z,96849.28
2022-08-28T14:11:08.849Z,96840.00
2022-08-28T14:13:39.855Z,96834.38
2022-08-28T14:16:07.598Z,96849.28
2022-08-28T14:18:34.663Z,96851.66
2022-08-28T14:21:03.937Z,96839.00
2022-08-28T14:23:30.423Z,96845.03
2022-08-28T14:25:57.425Z,96836.94
2022-08-28T14:28:24.015Z,96845.44
2022-08-28T14:30:52.071Z,96853.38
2022-08-28T14:33:20.773Z,96843.69
2022-08-28T14:35:48.857Z,96845.31
2022-08-28T14:38:15.913Z,96849.72
2022-08-28T14:40:44.065Z,96843.84
2022-08-28T14:43:13.255Z,96847.22
2022-08-28T14:45:45.687Z,96848.19
2022-08-28T14:48:12.603Z,96835.41
2022-08-28T14:50:43.931Z,96829.06
2022-08-28T14:53:10.951Z,96840.75
2022-08-28T14:55:46.881Z,96839.34
2022-08-28T14:58:14.430Z,96843.66
2022-08-28T15:00:43.537Z,96852.53
2022-08-28T15:03:10.599Z,96845.81
2022-08-28T15:05:37.283Z,96853.81
2022-08-28T15:08:07.790Z,96840.84
2022-08-28T15:10:34.660Z,96842.41
2022-08-28T15:13:01.354Z,96837.00
2022-08-28T15:15:28.117Z,96836.44
2022-08-28T15:17:54.600Z,96844.00
2022-08-28T15:20:22.043Z,96845.19
2022-08-28T15:22:48.732Z,96847.56
2022-08-28T15:25:15.311Z,96839.03
2022-08-28T15:27:41.828Z,96838.13
2022-08-28T15:30:08.630Z,96841.13
2022-08-28T15:32:35.197Z,96834.78
2022-08-28T15:35:01.669Z,96833.94
2022-08-28T15:37:29.348Z,96838.59
2022-08-28T15:40:16.800Z,96835.69
2022-08-28T15:42:44.478Z,96832.81
2022-08-28T15:45:12.206Z,96841.59
2022-08-28T15:47:38.719Z,96842.41
2022-08-28T15:50:05.846Z,96830.44
2022-08-28T15:52:33.037Z,96826.31
2022-08-28T15:54:59.545Z,96837.94
2022-08-28T15:57:25.996Z,96838.94
2022-08-28T15:59:52.606Z,96831.81
2022-08-28T16:02:22.464Z,96843.97
2022-08-28T16:04:49.345Z,96841.91
2022-08-28T16:07:17.358Z,96849.03
2022-08-28T16:09:43.842Z,96845.84
2022-08-28T16:12:10.258Z,96851.53
2022-08-28T16:14:36.803Z,96851.69
2022-08-28T16:17:06.007Z,96860.34
2022-08-28T16:19:38.412Z,96840.03
2022-08-28T16:22:05.325Z,96851.66
2022-08-28T16:24:31.822Z,96845.50
2022-08-28T16:26:58.285Z,96848.16
2022-08-28T16:29:24.779Z,96849.28
2022-08-28T16:31:51.414Z,96851.34
2022-08-28T16:34:19.506Z,96845.47
2022-08-28T16:36:50.225Z,96832.13
2022-08-28T16:39:17.449Z,96842.03
2022-08-28T16:41:49.648Z,96836.06
2022-08-28T16:44:24.450Z,96834.50
2022-08-28T16:46:51.222Z,96834.31
2022-08-28T16:49:18.021Z,96822.81
2022-08-28T16:51:44.596Z,96827.06
2022-08-28T16:54:11.028Z,96843.53
2022-08-28T16:56:37.543Z,96839.97
2022-08-28T16:59:04.390Z,96839.22
2022-08-28T17:01:36.955Z,96844.81
2022-08-28T17:04:03.823Z,96835.72
2022-08-28T17:06:31.603Z,96840.16
2022-08-28T17:08:58.749Z,96845.50
2022-08-28T17:11:27.075Z,96842.91
2022-08-28T17:13:55.263Z,96820.34
2022-08-28T17:16:23.850Z,96847.41
2022-08-28T17:18:52.217Z,96842.50
2022-08-28T17:21:39.049Z,96842.72
2022-08-28T17:24:06.790Z,96836.44
2022-08-28T17:26:33.602Z,96854.50
2022-08-28T17:29:00.161Z,96849.91
2022-08-28T17:31:26.642Z,96853.41
2022-08-28T17:33:53.293Z,96857.22
2022-08-28T17:36:32.455Z,96868.22
2022-08-28T17:39:01.555Z,96863.31
2022-08-28T17:41:28.115Z,96865.72
2022-08-28T17:43:54.546Z,96866.09
2022-08-28T17:46:21.119Z,96865.25
2022-08-28T17:48:54.382Z,96878.94
2022-08-28T17:51:33.178Z,96867.78
2022-08-28T17:54:10.928Z,96875.31
2022-08-28T17:56:37.464Z,96877.09
2022-08-28T17:59:04.750Z,96878.81
2022-08-28T18:01:31.261Z,96870.84
2022-08-28T18:03:57.751Z,96884.88
2022-08-28T18:06:24.951Z,96880.31
2022-08-28T18:08:51.918Z,96888.81
2022-08-28T18:11:19.093Z,96881.22
2022-08-28T18:13:46.287Z,96896.44
2022-08-28T18:16:12.904Z,96899.09
2022-08-28T18:18:39.508Z,96900.16
2022-08-28T18:21:05.990Z,96900.91
2022-08-28T18:23:32.756Z,96899.28
2022-08-28T18:25:59.356Z,96910.91
2022-08-28T18:28:26.605Z,96922.22
2022-08-28T18:30:53.844Z,96924.63
2022-08-28T18:33:23.555Z,96917.59
2022-08-28T18:35:51.781Z,96916.47
2022-08-28T18:38:20.710Z,96926.16
2022-08-28T18:40:47.782Z,96928.13
2022-08-28T18:43:14.252Z,96929.09
2022-08-28T18:45:40.948Z,96936.91
2022-08-28T18:48:10.407Z,96940.44
2022-08-28T18:50:37.957Z,96941.66
2022-08-28T18:53:05.308Z,96949.66
2022-08-28T18:55:32.710Z,96946.06
2022-08-28T18:58:00.928Z,96954.06
2022-08-28T19:00:29.571Z,96950.91
2022-08-28T19:02:56.212Z,96959.81
2022-08-28T19:05:23.305Z,96956.41
2022-08-28T19:07:50.310Z,96963.88
2022-08-28T19:10:32.640Z,96955.88
2022-08-28T19:13:00.867Z,96950.69
2022-08-28T19:15:28.210Z,96963.44
2022-08-28T19:17:54.725Z,96975.13
2022-08-28T19:20:21.453Z,96969.63
2022-08-28T19:22:48.751Z,96972.03
2022-08-28T19:25:28.138Z,96952.28
2022-08-28T19:27:59.872Z,96975.06
2022-08-28T19:30:32.818Z,96983.63
2022-08-28T19:33:01.537Z,96991.31
2022-08-28T19:35:28.345Z,96980.19
2022-08-28T19:37:54.833Z,96988.75
2022-08-28T19:40:22.519Z,96980.06
2022-08-28T19:42:49.985Z,96990.34
2022-08-28T19:45:16.850Z,96980.31
2022-08-28T19:47:43.346Z,96994.41
2022-08-28T19:50:11.681Z,96990.75
2022-08-28T19:52:38.565Z,96998.72
2022-08-28T19:55:06.587Z,96975.72
2022-08-28T19:57:34.374Z,96997.41
2022-08-28T20:00:02.016Z,96989.47
2022-08-28T20:02:30.963Z,96994.31
2022-08-28T20:04:57.555Z,97000.97
2022-08-28T20:07:24.964Z,97001.00
2022-08-28T20:09:52.139Z,96993.41
2022-08-28T20:12:19.359Z,97009.03
2022-08-28T20:14:46.040Z,97004.28
2022-08-28T20:17:13.865Z,97011.91
2022-08-28T20:19:40.511Z,97004.59
2022-08-28T20:22:06.905Z,97011.56
2022-08-28T20:24:33.389Z,97005.72
2022-08-28T20:26:59.928Z,97011.84
2022-08-28T20:29:26.382Z,97015.84
2022-08-28T20:31:53.119Z,97015.88
2022-08-28T20:34:19.867Z,97012.97
2022-08-28T20:36:46.576Z,97014.00
2022-08-28T20:39:13.106Z,97010.06
2022-08-28T20:41:41.096Z,97026.75
2022-08-28T20:44:10.418Z,97019.59
2022-08-28T20:46:41.354Z,97005.03
2022-08-28T20:49:12.497Z,97019.38
2022-08-28T20:51:53.166Z,97001.34
2022-08-28T20:54:29.246Z,97006.38
2022-08-28T20:56:58.076Z,97023.34
2022-08-28T20:59:28.889Z,97003.50
2022-08-28T21:02:10.937Z,97019.16
2022-08-28T21:04:39.767Z,97023.13
2022-08-28T21:07:06.370Z,97024.19
2022-08-28T21:09:39.611Z,97027.91
2022-08-28T21:12:19.910Z,97032.16
2022-08-28T21:14:51.539Z,97028.47
2022-08-28T21:17:20.858Z,97029.81
2022-08-28T21:19:55.818Z,97023.97
2022-08-28T21:22:22.360Z,97022.94
2022-08-28T21:24:48.839Z,97025.84
2022-08-28T21:27:15.524Z,97027.47
2022-08-28T21:29:45.868Z,97029.81
2022-08-28T21:32:13.073Z,97029.31
2022-08-28T21:34:39.610Z,97025.09
2022-08-28T21:37:06.561Z,97019.25
2022-08-28T21:39:33.407Z,97027.19
2022-08-28T21:42:00.125Z,97011.84
2022-08-28T21:44:26.723Z,97020.34
2022-08-28T21:46:53.480Z,97012.09
2022-08-28T21:49:20.021Z,97013.16
2022-08-28T21:51:47.485Z,97021.38
2022-08-28T21:54:14.175Z,97010.28
2022-08-28T21:56:40.867Z,97022.72
2022-08-28T21:59:07.297Z,97019.78
2022-08-28T22:03:09.485Z,97023.78
2022-08-28T22:05:36.414Z,97027.75
2022-08-28T22:08:02.966Z,97023.00
2022-08-28T22:10:29.570Z,97026.97
2022-08-28T22:12:56.481Z,97028.81
2022-08-28T22:15:23.919Z,97023.50
2022-08-28T22:17:50.948Z,97032.53
2022-08-28T22:20:18.306Z,97031.47
2022-08-28T22:23:03.264Z,97027.75
2022-08-28T22:25:29.923Z,97033.59
2022-08-28T22:27:56.996Z,97030.66
2022-08-28T22:30:23.802Z,97041.00
2022-08-28T22:32:50.938Z,97046.53
2022-08-28T22:35:19.093Z,97045.75
2022-08-28T22:37:46.327Z,97040.97
2022-08-28T22:40:13.828Z,97047.84
2022-08-28T22:42:41.122Z,97057.13
2022-08-28T22:45:09.522Z,97048.41
2022-08-28T22:47:36.387Z,97053.13
2022-08-28T22:50:04.640Z,97060.56
2022-08-28T22:52:31.341Z,97056.88
2022-08-28T22:54:58.218Z,97051.00
2022-08-28T22:57:24.890Z,97057.91
2022-08-28T22:59:51.300Z,97064.78
2022-08-28T23:02:19.440Z,97053.66
2022-08-28T23:04:46.108Z,97055.25
2022-08-28T23:07:18.726Z,97054.75
2022-08-28T23:09:45.158Z,97051.81
2022-08-28T23:12:11.801Z,97047.03
2022-08-28T23:14:38.285Z,97056.31
2022-08-28T23:17:04.920Z,97052.56
2022-08-28T23:19:31.423Z,97052.56
2022-08-28T23:21:58.286Z,97043.81
2022-08-28T23:24:24.834Z,97047.78
2022-08-28T23:26:51.376Z,97044.63
2022-08-28T23:29:17.906Z,97044.88
2022-08-28T23:31:44.642Z,97048.84
2022-08-28T23:34:11.358Z,97049.91
2022-08-28T23:36:39.638Z,97037.44
2022-08-28T23:39:10.249Z,97047.50
2022-08-28T23:41:37.668Z,97048.53
2022-08-28T23:44:08.532Z,97037.41
2022-08-28T23:46:36.479Z,97053.28
2022-08-28T23:49:03.622Z,97044.03
2022-08-28T23:51:31.030Z,97032.38
2022-08-28T23:53:57.731Z,97041.91
2022-08-28T23:56:28.207Z,97043.22
2022-08-28T23:58:54.846Z,97035.50
